Time;durP1;ratioP1;P1;durP2;ratioP2;P2;SDS_P1;SDS_P2;PMS_P1;PMS_P2;Temp;Humidity;BMP_temperature;BMP_pressure;BME280_temperature;BME280_humidity;BME280_pressure;Samples;Min_cycle;Max_cycle;Signal;HPM_P1;HPM_P2
2024/03/22 00:00:55;;;;;;;1.63;1.50;;;;;;;;;;6226601;28;1374045;-75
2024/03/22 00:03:55;;;;;;;1.60;1.50;;;;;;;;;;6273827;28;20437;-74
2024/03/22 00:06:55;;;;;;;1.83;1.70;;;;;;;;;;6273187;28;20556;-75
2024/03/22 00:09:56;;;;;;;1.70;1.40;;;;;;;;;;6275385;28;20470;-74
2024/03/22 00:12:56;;;;;;;2.33;1.67;;;;;;;;;;6291056;28;20021;-74
2024/03/22 00:15:56;;;;;;;2.00;1.67;;;;;;;;;;6299072;28;20385;-75
2024/03/22 00:18:57;;;;;;;1.73;1.37;;;;;;;;;;6297543;28;20484;-76
2024/03/22 00:21:57;;;;;;;1.97;1.77;;;;;;;;;;6297539;28;20530;-75
2024/03/22 00:24:57;;;;;;;2.27;1.73;;;;;;;;;;6284528;28;20145;-75
2024/03/22 00:27:57;;;;;;;2.63;1.83;;;;;;;;;;6273953;28;20412;-75
2024/03/22 00:30:58;;;;;;;1.73;1.50;;;;;;;;;;6249158;28;20463;-76
2024/03/22 00:33:58;;;;;;;2.10;1.90;;;;;;;;;;6272515;28;20453;-75
2024/03/22 00:36:58;;;;;;;2.20;1.83;;;;;;;;;;6254643;28;20544;-76
2024/03/22 00:39:58;;;;;;;2.07;1.73;;;;;;;;;;6273896;28;20461;-75
2024/03/22 00:42:59;;;;;;;3.50;1.90;;;;;;;;;;6273664;28;20469;-75
2024/03/22 00:46:00;;;;;;;2.03;1.83;;;;;;;;;;6274628;28;20453;-75
2024/03/22 00:49:00;;;;;;;2.35;1.85;;;;;;;;;;6272684;28;20021;-76
2024/03/22 00:52:00;;;;;;;2.53;2.23;;;;;;;;;;6272247;28;20032;-75
2024/03/22 00:55:01;;;;;;;3.37;2.20;;;;;;;;;;6273533;28;20021;-75
2024/03/22 00:58:01;;;;;;;2.43;2.07;;;;;;;;;;6273030;28;20473;-75
2024/03/22 01:01:02;;;;;;;2.43;2.17;;;;;;;;;;6273176;28;20083;-75
2024/03/22 01:04:02;;;;;;;2.78;2.00;;;;;;;;;;6272100;28;20531;-75
2024/03/22 01:07:02;;;;;;;2.73;2.07;;;;;;;;;;6272210;28;20056;-74
2024/03/22 01:10:03;;;;;;;4.50;2.37;;;;;;;;;;6273381;28;20061;-75
2024/03/22 01:13:03;;;;;;;2.50;2.13;;;;;;;;;;6272833;28;20100;-74
2024/03/22 01:16:04;;;;;;;2.73;2.37;;;;;;;;;;6273242;28;20473;-75
2024/03/22 01:19:04;;;;;;;2.40;2.17;;;;;;;;;;6271383;28;20048;-76
2024/03/22 01:22:04;;;;;;;2.60;2.40;;;;;;;;;;6272156;28;20477;-75
2024/03/22 01:25:05;;;;;;;2.30;1.87;;;;;;;;;;6255516;28;20473;-74
2024/03/22 01:28:05;;;;;;;2.80;2.60;;;;;;;;;;6273035;28;20507;-75
2024/03/22 01:31:05;;;;;;;2.57;2.20;;;;;;;;;;6272900;28;20420;-75
2024/03/22 01:34:06;;;;;;;3.23;2.20;;;;;;;;;;6271098;28;20303;-75
2024/03/22 01:37:06;;;;;;;2.57;2.27;;;;;;;;;;6272094;28;20493;-75
2024/03/22 01:40:07;;;;;;;2.93;2.60;;;;;;;;;;6273160;28;20060;-75
2024/03/22 01:43:07;;;;;;;;;;;;;;;;;;6273150;28;20025;-75
2024/03/22 01:46:08;;;;;;;2.85;1.92;;;;;;;;;;6275483;28;19946;-75
2024/03/22 01:49:09;;;;;;;2.60;2.23;;;;;;;;;;6275938;28;20461;-75
2024/03/22 01:52:09;;;;;;;2.58;2.28;;;;;;;;;;6276771;28;20021;-75
2024/03/22 01:55:10;;;;;;;3.40;2.80;;;;;;;;;;6278068;28;20079;-74
2024/03/22 01:58:12;;;;;;;2.67;2.47;;;;;;;;;;6277234;28;20032;-75
2024/03/22 02:01:12;;;;;;;3.40;2.42;;;;;;;;;;6277532;28;20033;-74
2024/03/22 02:04:14;;;;;;;3.00;2.70;;;;;;;;;;6275751;28;20379;-74
2024/03/22 02:07:14;;;;;;;3.38;2.88;;;;;;;;;;6276296;28;20033;-74
2024/03/22 02:10:16;;;;;;;3.30;2.53;;;;;;;;;;6260196;28;20035;-74
2024/03/22 02:13:16;;;;;;;;;;;;;;;;;;6277348;28;20021;-76
2024/03/22 02:16:16;;;;;;;3.23;2.20;;;;;;;;;;6276824;28;19953;-74
2024/03/22 02:19:17;;;;;;;3.00;2.70;;;;;;;;;;6275556;28;20078;-74
2024/03/22 02:22:17;;;;;;;3.10;2.63;;;;;;;;;;6275990;28;20612;-74
2024/03/22 02:25:17;;;;;;;3.40;2.87;;;;;;;;;;6277228;28;20539;-74
2024/03/22 02:28:17;;;;;;;3.87;2.47;;;;;;;;;;6276820;28;20892;-74
2024/03/22 02:31:19;;;;;;;3.23;2.60;;;;;;;;;;6259132;28;20465;-74
2024/03/22 02:34:20;;;;;;;3.20;2.90;;;;;;;;;;6274986;28;20429;-74
2024/03/22 02:37:20;;;;;;;4.10;2.83;;;;;;;;;;6275225;28;20024;-75
2024/03/22 02:40:20;;;;;;;3.33;2.90;;;;;;;;;;6276139;28;20017;-74
2024/03/22 02:43:21;;;;;;;3.40;2.67;;;;;;;;;;6276398;28;20143;-75
2024/03/22 02:46:21;;;;;;;3.00;2.67;;;;;;;;;;6296426;28;20024;-74
2024/03/22 02:49:21;;;;;;;5.53;2.77;;;;;;;;;;6299582;28;20028;-74
2024/03/22 02:52:21;;;;;;;3.63;3.07;;;;;;;;;;6300306;28;20061;-74
2024/03/22 02:55:22;;;;;;;2.53;2.30;;;;;;;;;;6282920;28;20085;-74
2024/03/22 02:58:22;;;;;;;3.07;2.77;;;;;;;;;;6300136;28;20052;-74
2024/03/22 03:01:22;;;;;;;3.40;3.07;;;;;;;;;;6300267;28;20024;-75
2024/03/22 03:04:23;;;;;;;3.20;2.80;;;;;;;;;;6299256;28;20103;-74
2024/03/22 03:07:27;;;;;;;3.13;2.83;;;;;;;;;;6282125;28;20016;-75
2024/03/22 03:10:27;;;;;;;3.22;2.88;;;;;;;;;;6293114;28;20361;-74
2024/03/22 03:13:28;;;;;;;3.13;2.83;;;;;;;;;;6275817;28;20020;-74
2024/03/22 03:16:29;;;;;;;3.40;2.95;;;;;;;;;;6275773;28;20503;-76
2024/03/22 03:19:29;;;;;;;3.20;2.90;;;;;;;;;;6286747;28;20449;-75
2024/03/22 03:22:29;;;;;;;3.00;2.63;;;;;;;;;;6299408;28;20485;-75
2024/03/22 03:25:29;;;;;;;3.30;3.00;;;;;;;;;;6277650;28;20016;-75
2024/03/22 03:28:29;;;;;;;3.77;3.10;;;;;;;;;;6275428;28;20021;-75
2024/03/22 03:31:30;;;;;;;3.33;2.97;;;;;;;;;;6275945;28;20017;-75
2024/03/22 03:34:30;;;;;;;2.93;2.73;;;;;;;;;;6273206;28;20071;-75
2024/03/22 03:37:30;;;;;;;3.43;2.97;;;;;;;;;;6273640;28;20032;-74
2024/03/22 03:40:30;;;;;;;3.07;2.67;;;;;;;;;;6275088;28;20539;-75
2024/03/22 03:43:31;;;;;;;2.97;2.70;;;;;;;;;;6274554;28;20465;-75
2024/03/22 03:46:31;;;;;;;3.70;2.80;;;;;;;;;;6274779;28;20484;-74
2024/03/22 03:49:31;;;;;;;3.27;2.97;;;;;;;;;;6272923;28;20021;-75
2024/03/22 03:52:31;;;;;;;3.37;2.97;;;;;;;;;;6274529;28;20028;-75
2024/03/22 03:55:33;;;;;;;3.00;2.60;;;;;;;;;;6275141;28;20100;-75
2024/03/22 03:58:33;;;;;;;3.28;2.70;;;;;;;;;;6274639;28;20170;-75
2024/03/22 04:01:33;;;;;;;3.30;2.67;;;;;;;;;;6274770;28;20465;-75
2024/03/22 04:04:34;;;;;;;3.57;2.73;;;;;;;;;;6255011;28;20484;-75
2024/03/22 04:07:34;;;;;;;3.53;2.90;;;;;;;;;;6272603;28;20469;-75
2024/03/22 04:10:34;;;;;;;3.33;2.87;;;;;;;;;;6275243;28;20044;-75
2024/03/22 04:13:34;;;;;;;3.20;2.70;;;;;;;;;;6274576;28;20052;-75
2024/03/22 04:16:35;;;;;;;4.17;2.83;;;;;;;;;;6256361;28;20124;-75
2024/03/22 04:19:35;;;;;;;3.90;3.07;;;;;;;;;;6270393;28;20104;-74
2024/03/22 04:22:35;;;;;;;2.60;2.40;;;;;;;;;;6255339;28;20029;-75
2024/03/22 04:25:35;;;;;;;3.10;2.77;;;;;;;;;;6274522;28;20068;-75
2024/03/22 04:28:36;;;;;;;3.53;2.97;;;;;;;;;;6274606;28;20028;-75
2024/03/22 04:31:36;;;;;;;3.73;3.07;;;;;;;;;;6255833;28;20313;-75
2024/03/22 04:34:36;;;;;;;3.20;2.90;;;;;;;;;;6260886;28;20032;-75
2024/03/22 04:37:36;;;;;;;4.47;3.30;;;;;;;;;;6272702;28;20025;-75
2024/03/22 04:40:37;;;;;;;3.33;3.00;;;;;;;;;;6274430;28;20536;-75
2024/03/22 04:43:37;;;;;;;3.40;3.00;;;;;;;;;;6273636;28;20520;-75
2024/03/22 04:46:37;;;;;;;3.37;2.90;;;;;;;;;;6273584;28;20425;-76
2024/03/22 04:49:37;;;;;;;3.10;2.80;;;;;;;;;;6271968;28;20021;-75
2024/03/22 04:52:38;;;;;;;4.03;3.30;;;;;;;;;;6272374;28;20108;-74
2024/03/22 04:55:38;;;;;;;3.07;2.77;;;;;;;;;;6273537;28;20547;-75
2024/03/22 04:58:38;;;;;;;3.13;2.50;;;;;;;;;;6272605;28;20493;-75
2024/03/22 05:01:39;;;;;;;3.77;2.97;;;;;;;;;;6255839;28;20036;-75
2024/03/22 05:04:39;;;;;;;3.10;2.80;;;;;;;;;;6271512;28;20365;-74
2024/03/22 05:07:39;;;;;;;2.77;2.23;;;;;;;;;;6272403;28;20362;-74
2024/03/22 05:10:39;;;;;;;3.63;3.23;;;;;;;;;;6273349;28;20021;-74
2024/03/22 05:13:40;;;;;;;2.70;2.40;;;;;;;;;;6273106;28;20043;-75
2024/03/22 05:16:40;;;;;;;2.73;2.43;;;;;;;;;;6259777;28;20029;-74
2024/03/22 05:19:40;;;;;;;3.33;2.73;;;;;;;;;;6270384;28;20013;-74
2024/03/22 05:22:40;;;;;;;3.33;2.70;;;;;;;;;;6271635;28;20037;-75
2024/03/22 05:25:41;;;;;;;3.23;2.43;;;;;;;;;;6273173;28;20066;-75
2024/03/22 05:28:41;;;;;;;3.37;2.77;;;;;;;;;;6271418;28;20430;-75
2024/03/22 05:31:48;;;;;;;2.77;2.53;;;;;;;;;;6272731;28;20071;-75
2024/03/22 05:34:49;;;;;;;3.03;2.67;;;;;;;;;;6254172;28;20039;-74
2024/03/22 05:37:49;;;;;;;2.83;2.57;;;;;;;;;;6271711;28;20017;-75
2024/03/22 05:40:49;;;;;;;4.97;3.47;;;;;;;;;;6273142;28;20071;-76
2024/03/22 05:43:50;;;;;;;4.13;3.70;;;;;;;;;;6272592;28;20021;-74
2024/03/22 05:46:50;;;;;;;3.60;3.27;;;;;;;;;;6272609;28;20029;-74
2024/03/22 05:49:51;;;;;;;3.37;3.07;;;;;;;;;;6271718;28;20067;-75
2024/03/22 05:52:51;;;;;;;3.72;2.72;;;;;;;;;;6261907;28;20021;-74
2024/03/22 05:55:52;;;;;;;3.40;2.90;;;;;;;;;;6272192;28;20469;-74
2024/03/22 05:58:52;;;;;;;3.40;2.77;;;;;;;;;;6271969;28;20481;-74
2024/03/22 06:01:52;;;;;;;3.77;3.17;;;;;;;;;;6271969;28;20403;-75
2024/03/22 06:04:52;;;;;;;3.10;2.80;;;;;;;;;;6271208;28;20499;-76
2024/03/22 06:07:53;;;;;;;4.57;3.53;;;;;;;;;;6272200;28;20473;-74
2024/03/22 06:10:54;;;;;;;4.35;2.83;;;;;;;;;;6269441;28;20465;-74
2024/03/22 06:13:54;;;;;;;;;;;;;;;;;;6272109;28;20566;-75
2024/03/22 06:16:55;;;;;;;3.40;2.85;;;;;;;;;;6271325;28;19916;-76
2024/03/22 06:19:55;;;;;;;4.37;3.47;;;;;;;;;;6271074;28;20033;-76
2024/03/22 06:22:55;;;;;;;4.00;3.37;;;;;;;;;;6271702;28;20432;-75
2024/03/22 06:25:56;;;;;;;3.47;3.07;;;;;;;;;;6273275;28;20475;-74
2024/03/22 06:28:56;;;;;;;5.20;3.73;;;;;;;;;;6271709;28;20024;-74
2024/03/22 06:31:56;;;;;;;4.00;3.60;;;;;;;;;;6273003;28;20112;-75
2024/03/22 06:34:57;;;;;;;5.30;3.47;;;;;;;;;;6275081;28;20512;-75
2024/03/22 06:37:57;;;;;;;5.57;3.58;;;;;;;;;;6276065;28;20461;-74
2024/03/22 06:40:58;;;;;;;4.03;3.63;;;;;;;;;;6277217;28;20033;-75
2024/03/22 06:43:59;;;;;;;4.25;3.63;;;;;;;;;;6277355;28;20066;-75
2024/03/22 06:46:59;;;;;;;4.90;4.23;;;;;;;;;;6275640;28;20068;-76
2024/03/22 06:49:59;;;;;;;5.33;4.70;;;;;;;;;;6275357;28;20421;-76
2024/03/22 06:52:59;;;;;;;4.83;4.00;;;;;;;;;;6262860;28;20450;-75
2024/03/22 06:56:00;;;;;;;4.20;3.37;;;;;;;;;;6276073;28;20029;-75
2024/03/22 06:59:00;;;;;;;4.20;3.80;;;;;;;;;;6276080;28;20044;-75
2024/03/22 07:02:00;;;;;;;5.10;4.03;;;;;;;;;;6274942;28;20020;-75
2024/03/22 07:05:00;;;;;;;4.47;3.40;;;;;;;;;;6275480;28;20339;-75
2024/03/22 07:08:01;;;;;;;5.60;4.07;;;;;;;;;;6257384;28;20347;-75
2024/03/22 07:11:04;;;;;;;5.13;3.63;;;;;;;;;;6275689;28;20485;-75
2024/03/22 07:14:05;;;;;;;4.65;3.95;;;;;;;;;;6275350;28;20025;-75
2024/03/22 07:17:05;;;;;;;5.40;4.07;;;;;;;;;;6274829;28;20033;-75
2024/03/22 07:20:06;;;;;;;4.40;3.60;;;;;;;;;;6249879;28;20025;-74
2024/03/22 07:23:06;;;;;;;5.45;4.38;;;;;;;;;;6250499;28;20112;-75
2024/03/22 07:26:07;;;;;;;5.37;4.13;;;;;;;;;;6251360;28;20033;-75
2024/03/22 07:29:08;;;;;;;4.65;4.03;;;;;;;;;;6251040;28;20060;-74
2024/03/22 07:32:08;;;;;;;4.97;4.07;;;;;;;;;;6258832;28;20377;-75
2024/03/22 07:35:08;;;;;;;5.40;4.37;;;;;;;;;;6275202;28;20465;-77
2024/03/22 07:38:08;;;;;;;4.07;3.67;;;;;;;;;;6256492;28;20025;-75
2024/03/22 07:41:09;;;;;;;5.70;4.10;;;;;;;;;;6275539;28;20017;-75
2024/03/22 07:44:09;;;;;;;5.43;4.50;;;;;;;;;;6273816;28;20017;-75
2024/03/22 07:47:09;;;;;;;4.83;4.00;;;;;;;;;;6273697;28;20075;-75
2024/03/22 07:50:10;;;;;;;4.83;4.33;;;;;;;;;;6274638;28;20751;-74
2024/03/22 07:53:10;;;;;;;4.50;3.97;;;;;;;;;;6248289;28;20096;-75
2024/03/22 07:56:10;;;;;;;4.93;4.43;;;;;;;;;;6274475;28;20512;-76
2024/03/22 07:59:11;;;;;;;8.60;4.47;;;;;;;;;;6274438;28;20072;-74
2024/03/22 08:02:11;;;;;;;5.50;4.60;;;;;;;;;;6273144;28;20071;-75
2024/03/22 08:05:11;;;;;;;5.57;4.03;;;;;;;;;;6274197;28;20025;-74
2024/03/22 08:08:12;;;;;;;7.30;5.17;;;;;;;;;;6281717;28;20082;-75
2024/03/22 08:11:12;;;;;;;6.40;5.00;;;;;;;;;;6274547;28;20025;-75
2024/03/22 08:14:12;;;;;;;5.27;4.33;;;;;;;;;;6274368;28;20079;-75
2024/03/22 08:17:12;;;;;;;6.77;4.87;;;;;;;;;;6271823;28;20500;-75
2024/03/22 08:20:13;;;;;;;5.50;4.27;;;;;;;;;;6273737;28;20066;-75
2024/03/22 08:23:13;;;;;;;6.33;4.70;;;;;;;;;;6273374;28;20031;-75
2024/03/22 08:26:13;;;;;;;5.10;4.30;;;;;;;;;;6275024;28;20020;-75
2024/03/22 08:29:14;;;;;;;4.33;3.93;;;;;;;;;;6274011;28;20454;-75
2024/03/22 08:32:14;;;;;;;;;;;;;;;;;;6255201;28;20021;-74
2024/03/22 08:35:15;;;;;;;5.47;3.47;;;;;;;;;;6255265;28;19913;-75
2024/03/22 08:38:16;;;;;;;5.80;4.30;;;;;;;;;;6273411;28;20373;-75
2024/03/22 08:41:16;;;;;;;5.28;4.05;;;;;;;;;;6274358;28;20468;-75
2024/03/22 08:44:17;;;;;;;4.53;3.43;;;;;;;;;;6272898;28;20021;-75
2024/03/22 08:47:17;;;;;;;4.97;3.70;;;;;;;;;;6271849;28;20032;-77
2024/03/22 08:50:17;;;;;;;4.33;3.70;;;;;;;;;;6272876;28;20028;-77
2024/03/22 08:53:17;;;;;;;4.57;3.70;;;;;;;;;;6272822;28;20013;-77
2024/03/22 08:56:18;;;;;;;4.10;3.30;;;;;;;;;;6272105;28;20033;-77
2024/03/22 08:59:18;;;;;;;3.97;3.17;;;;;;;;;;6284363;28;20416;-77
2024/03/22 09:02:18;;;;;;;4.93;3.57;;;;;;;;;;6279042;28;20051;-78
2024/03/22 09:05:19;;;;;;;4.17;3.40;;;;;;;;;;6287425;28;20150;-77
2024/03/22 09:08:20;;;;;;;4.22;3.63;;;;;;;;;;6272318;28;20410;-77
2024/03/22 09:11:20;;;;;;;4.72;3.42;;;;;;;;;;6272963;28;20057;-76
2024/03/22 09:14:20;;;;;;;4.73;3.57;;;;;;;;;;6272882;28;20017;-77
2024/03/22 09:17:20;;;;;;;4.77;3.30;;;;;;;;;;6272276;28;20029;-78
2024/03/22 09:20:20;;;;;;;4.83;3.70;;;;;;;;;;6272460;28;20032;-78
2024/03/22 09:23:21;;;;;;;5.53;3.57;;;;;;;;;;6272563;28;20032;-77
2024/03/22 09:26:21;;;;;;;3.50;2.90;;;;;;;;;;6273130;28;20028;-77
2024/03/22 09:29:21;;;;;;;3.80;3.13;;;;;;;;;;6273094;28;20017;-77
2024/03/22 09:32:22;;;;;;;5.25;3.38;;;;;;;;;;6272238;28;20021;-78
2024/03/22 09:35:22;;;;;;;4.07;3.23;;;;;;;;;;6271853;28;20045;-78
2024/03/22 09:38:22;;;;;;;5.17;3.40;;;;;;;;;;6272438;28;20017;-77
2024/03/22 09:41:24;;;;;;;4.67;3.67;;;;;;;;;;6254802;28;20032;-78
2024/03/22 09:44:27;;;;;;;4.13;3.53;;;;;;;;;;6272623;28;20365;-78
2024/03/22 09:47:27;;;;;;;3.92;2.92;;;;;;;;;;6271272;28;20105;-78
2024/03/22 09:50:28;;;;;;;3.63;3.22;;;;;;;;;;6272813;28;20074;-78
2024/03/22 09:53:29;;;;;;;3.40;3.10;;;;;;;;;;6272214;28;20037;-77
2024/03/22 09:56:30;;;;;;;4.80;3.63;;;;;;;;;;6272942;28;20044;-78
2024/03/22 09:59:31;;;;;;;;;;;;;;;;;;6272996;28;20049;-77
2024/03/22 10:02:31;;;;;;;3.33;2.90;;;;;;;;;;6270746;28;19982;-78
2024/03/22 10:05:32;;;;;;;5.85;3.47;;;;;;;;;;6272511;28;20473;-78
2024/03/22 10:08:33;;;;;;;6.80;4.57;;;;;;;;;;6277354;28;20033;-77
2024/03/22 10:11:34;;;;;;;;;;;;;;;;;;6278014;28;20419;-78
2024/03/22 10:14:36;;;;;;;4.28;3.00;;;;;;;;;;6259336;28;19912;-78
2024/03/22 10:17:36;;;;;;;4.00;3.42;;;;;;;;;;6275884;28;20361;-77
2024/03/22 10:20:37;;;;;;;3.90;3.50;;;;;;;;;;6265948;28;20079;-77
2024/03/22 10:23:38;;;;;;;3.67;3.03;;;;;;;;;;6263885;28;20402;-77
2024/03/22 10:26:38;;;;;;;5.60;3.00;;;;;;;;;;6301948;28;20028;-78
2024/03/22 10:29:38;;;;;;;3.60;2.97;;;;;;;;;;6301415;28;20020;-78
2024/03/22 10:32:38;;;;;;;3.37;3.00;;;;;;;;;;6286385;28;20708;-77
2024/03/22 10:35:39;;;;;;;;;;;;;;;;;;6276085;28;20037;-78
2024/03/22 10:38:40;;;;;;;3.17;2.45;;;;;;;;;;6275922;28;19911;-78
2024/03/22 10:41:40;;;;;;;4.07;2.70;;;;;;;;;;6276757;28;20389;-78
2024/03/22 10:44:41;;;;;;;2.73;2.53;;;;;;;;;;6276581;28;20021;-78
2024/03/22 10:47:41;;;;;;;;;;;;;;;;;;6274937;28;20334;-78
2024/03/22 10:50:42;;;;;;;3.20;2.30;;;;;;;;;;6275740;28;19957;-78
2024/03/22 10:53:42;;;;;;;;;;;;;;;;;;6276177;28;20112;-78
2024/03/22 10:56:43;;;;;;;2.87;2.30;;;;;;;;;;6275676;28;19966;-78
2024/03/22 10:59:43;;;;;;;;;;;;;;;;;;6284224;28;20049;-78
2024/03/22 11:02:43;;;;;;;2.28;2.05;;;;;;;;;;6275039;28;20383;-78
2024/03/22 11:05:47;;;;;;;2.58;2.38;;;;;;;;;;6275650;28;20078;-75
2024/03/22 11:08:51;;;;;;;3.10;2.58;;;;;;;;;;6275387;28;20021;-75
2024/03/22 11:11:52;;;;;;;3.72;2.85;;;;;;;;;;6276148;28;20017;-75
2024/03/22 11:14:53;;;;;;;2.90;2.60;;;;;;;;;;6276209;28;20454;-75
2024/03/22 11:17:53;;;;;;;3.38;2.20;;;;;;;;;;6274368;28;20115;-75
2024/03/22 11:20:53;;;;;;;2.73;2.53;;;;;;;;;;6274981;28;20039;-75
2024/03/22 11:23:54;;;;;;;;;;;;;;;;;;6275228;28;20423;-75
2024/03/22 11:26:54;;;;;;;2.60;1.98;;;;;;;;;;6275425;28;19959;-75
2024/03/22 11:29:54;;;;;;;;;;;;;;;;;;6275556;28;20458;-75
2024/03/22 11:32:55;;;;;;;2.22;1.88;;;;;;;;;;6275394;28;20356;-75
2024/03/22 11:35:55;;;;;;;;;;;;;;;;;;6274855;28;20025;-75
2024/03/22 11:38:56;;;;;;;2.63;1.75;;;;;;;;;;6274209;28;19958;-75
2024/03/22 11:41:56;;;;;;;;;;;;;;;;;;6275887;28;20519;-76
2024/03/22 11:44:56;;;;;;;2.60;2.03;;;;;;;;;;6275452;28;19977;-75
2024/03/22 11:47:57;;;;;;;;;;;;;;;;;;6274658;28;20500;-75
2024/03/22 11:51:00;;;;;;;1.80;1.55;;;;;;;;;;6274637;28;19909;-75
2024/03/22 11:54:02;;;;;;;1.90;1.65;;;;;;;;;;6273924;28;20029;-76
2024/03/22 11:57:02;;;;;;;1.83;1.60;;;;;;;;;;6256482;28;20033;-75
2024/03/22 12:00:04;;;;;;;;;;;;;;;;;;6275028;28;20084;-76
2024/03/22 12:03:05;;;;;;;1.42;1.33;;;;;;;;;;6273813;28;19959;-76
2024/03/22 12:06:06;;;;;;;2.05;1.85;;;;;;;;;;6274448;28;20145;-75
2024/03/22 12:09:06;;;;;;;;;;;;;;;;;;6274152;28;20477;-75
2024/03/22 12:12:08;;;;;;;2.10;1.50;;;;;;;;;;6274338;28;20383;-76
2024/03/22 12:15:08;;;;;;;2.05;1.80;;;;;;;;;;6256748;28;20044;-76
2024/03/22 12:18:09;;;;;;;;;;;;;;;;;;6273745;28;20017;-78
2024/03/22 12:21:09;;;;;;;2.00;1.50;;;;;;;;;;6274133;28;19908;-78
2024/03/22 12:24:09;;;;;;;;;;;;;;;;;;6274608;28;20028;-78
2024/03/22 12:27:09;;;;;;;3.58;1.55;;;;;;;;;;6274142;28;19905;-78
2024/03/22 12:30:10;;;;;;;;;;;;;;;;;;6273962;28;20017;-78
2024/03/22 12:33:10;;;;;;;1.63;1.50;;;;;;;;;;6272861;28;19935;-78
2024/03/22 12:36:10;;;;;;;;;;;;;;;;;;6273584;28;20033;-78
2024/03/22 12:39:11;;;;;;;1.85;1.40;;;;;;;;;;6273599;28;19955;-78
2024/03/22 12:42:11;;;;;;;;;;;;;;;;;;6273934;28;20457;-78
2024/03/22 12:45:11;;;;;;;1.45;1.35;;;;;;;;;;6274024;28;19927;-78
2024/03/22 12:48:11;;;;;;;1.63;1.45;;;;;;;;;;6272631;28;20070;-78
2024/03/22 12:51:12;;;;;;;;;;;;;;;;;;6272901;28;20481;-78
2024/03/22 12:54:14;;;;;;;2.08;1.55;;;;;;;;;;6273052;28;20013;-77
2024/03/22 12:57:14;;;;;;;1.77;1.48;;;;;;;;;;6255539;28;20124;-78
2024/03/22 13:00:18;;;;;;;;;;;;;;;;;;6274026;28;20105;-78
2024/03/22 13:03:18;;;;;;;1.80;1.45;;;;;;;;;;6272130;28;19955;-77
2024/03/22 13:06:18;;;;;;;;;;;;;;;;;;6273009;28;20025;-78
2024/03/22 13:09:21;;;;;;;1.13;0.90;;;;;;;;;;6254715;28;19909;-78
2024/03/22 13:12:21;;;;;;;1.40;1.25;;;;;;;;;;6273418;28;20032;-78
2024/03/22 13:15:21;;;;;;;;;;;;;;;;;;6276069;28;20025;-77
2024/03/22 13:18:22;;;;;;;1.40;1.20;;;;;;;;;;6272149;28;19905;-78
2024/03/22 13:21:22;;;;;;;;;;;;;;;;;;6248924;28;20473;-78
2024/03/22 13:24:22;;;;;;;1.40;1.30;;;;;;;;;;6272152;28;19904;-78
2024/03/22 13:27:25;;;;;;;;;;;;;;;;;;6271742;28;20116;-78
2024/03/22 13:30:27;;;;;;;1.70;1.17;;;;;;;;;;6273450;28;20365;-77
2024/03/22 13:33:27;;;;;;;;;;;;;;;;;;6271240;28;20496;-78
2024/03/22 13:36:28;;;;;;;1.23;1.10;;;;;;;;;;6271918;28;19967;-78
2024/03/22 13:39:31;;;;;;;;;;;;;;;;;;6254928;28;20121;-77
2024/03/22 13:42:31;;;;;;;1.00;0.95;;;;;;;;;;6277780;28;19948;-78
2024/03/22 13:45:31;;;;;;;;;;;;;;;;;;6278936;28;20032;-78
2024/03/22 13:48:32;;;;;;;1.40;1.10;;;;;;;;;;6277371;28;19939;-78
2024/03/22 13:51:32;;;;;;;;;;;;;;;;;;6259292;28;20473;-78
2024/03/22 13:54:32;;;;;;;1.83;1.60;;;;;;;;;;6277000;28;19999;-78
2024/03/22 13:57:32;;;;;;;;;;;;;;;;;;6277832;28;20033;-78
2024/03/22 14:00:33;;;;;;;1.30;1.20;;;;;;;;;;6277268;28;19920;-78
2024/03/22 14:03:33;;;;;;;;;;;;;;;;;;6276963;28;20483;-78
2024/03/22 14:06:33;;;;;;;1.58;1.10;;;;;;;;;;6277354;28;19905;-78
2024/03/22 14:09:33;;;;;;;;;;;;;;;;;;6277398;28;20514;-78
2024/03/22 14:12:34;;;;;;;1.63;1.00;;;;;;;;;;6277272;28;19983;-77
2024/03/22 14:15:35;;;;;;;;;;;;;;;;;;6277695;28;20548;-78
2024/03/22 14:18:35;;;;;;;1.55;0.95;;;;;;;;;;6251496;28;19905;-77
2024/03/22 14:21:36;;;;;;;2.13;1.10;;;;;;;;;;6268247;28;20031;-78
2024/03/22 14:24:36;;;;;;;;;;;;;;;;;;6276708;28;20251;-78
2024/03/22 14:27:36;;;;;;;1.50;1.40;;;;;;;;;;6276743;28;20357;-78
2024/03/22 14:30:37;;;;;;;;;;;;;;;;;;6277626;28;20025;-77
2024/03/22 14:33:37;;;;;;;1.53;1.40;;;;;;;;;;6275447;28;19912;-77
2024/03/22 14:36:38;;;;;;;1.75;1.35;;;;;;;;;;6275729;28;20060;-78
2024/03/22 14:39:38;;;;;;;;;;;;;;;;;;6277647;28;20074;-77
2024/03/22 14:42:38;;;;;;;1.02;0.93;;;;;;;;;;6276471;28;19911;-78
2024/03/22 14:45:38;;;;;;;;;;;;;;;;;;6277582;28;20021;-75
2024/03/22 14:48:39;;;;;;;1.20;1.10;;;;;;;;;;6275379;28;19905;-76
2024/03/22 14:51:39;;;;;;;;;;;;;;;;;;6275143;28;20477;-77
2024/03/22 14:54:39;;;;;;;1.63;0.90;;;;;;;;;;6276110;28;19951;-75
2024/03/22 14:57:39;;;;;;;;;;;;;;;;;;6289083;28;20427;-75
2024/03/22 15:00:40;;;;;;;1.58;0.80;;;;;;;;;;6275917;28;20270;-75
2024/03/22 15:03:40;;;;;;;;;;;;;;;;;;6275414;28;20104;-77
2024/03/22 15:06:40;;;;;;;0.65;0.65;;;;;;;;;;6274438;28;19991;-76
2024/03/22 15:09:41;;;;;;;;;;;;;;;;;;6275832;28;20112;-76
2024/03/22 15:12:41;;;;;;;1.40;0.68;;;;;;;;;;6280630;28;19952;-75
2024/03/22 15:15:41;;;;;;;;;;;;;;;;;;6300751;28;20025;-75
2024/03/22 15:18:42;;;;;;;0.93;0.82;;;;;;;;;;6275470;28;19927;-75
2024/03/22 15:21:42;;;;;;;;;;;;;;;;;;6274838;28;20465;-76
2024/03/22 15:24:42;;;;;;;1.80;1.42;;;;;;;;;;6275532;28;19905;-75
2024/03/22 15:27:42;;;;;;;;;;;;;;;;;;6275769;28;20488;-75
2024/03/22 15:30:44;;;;;;;1.80;1.15;;;;;;;;;;6276179;28;19904;-75
2024/03/22 15:33:44;;;;;;;1.95;1.23;;;;;;;;;;6274061;28;20109;-75
2024/03/22 15:36:45;;;;;;;;;;;;;;;;;;6274391;28;20029;-76
2024/03/22 15:39:46;;;;;;;1.20;0.85;;;;;;;;;;6275122;28;20375;-75
2024/03/22 15:42:46;;;;;;;;;;;;;;;;;;6275339;28;20032;-75
2024/03/22 15:45:46;;;;;;;1.00;0.80;;;;;;;;;;6275450;28;19991;-75
2024/03/22 15:48:46;;;;;;;;;;;;;;;;;;6274909;28;20056;-75
2024/03/22 15:51:46;;;;;;;0.75;0.70;;;;;;;;;;6273651;28;19908;-75
2024/03/22 15:54:47;;;;;;;;;;;;;;;;;;6275248;28;20025;-76
2024/03/22 15:57:47;;;;;;;1.27;1.00;;;;;;;;;;6274572;28;19924;-78
2024/03/22 16:00:47;;;;;;;;;;;;;;;;;;6275500;28;20068;-78
2024/03/22 16:03:47;;;;;;;1.13;1.00;;;;;;;;;;6273068;28;19993;-77
2024/03/22 16:06:47;;;;;;;;;;;;;;;;;;6273509;28;20465;-78
2024/03/22 16:09:49;;;;;;;1.50;0.93;;;;;;;;;;6274522;28;19905;-77
2024/03/22 16:12:50;;;;;;;1.40;1.00;;;;;;;;;;6274270;28;20466;-77
2024/03/22 16:15:50;;;;;;;1.30;1.00;;;;;;;;;;6273830;28;20405;-77
2024/03/22 16:18:50;;;;;;;;;;;;;;;;;;6274196;28;20029;-78
2024/03/22 16:21:50;;;;;;;1.23;0.95;;;;;;;;;;6282076;28;20426;-78
2024/03/22 16:24:51;;;;;;;;;;;;;;;;;;6274749;28;20079;-78
2024/03/22 16:27:52;;;;;;;0.80;0.80;;;;;;;;;;6274258;28;19905;-77
2024/03/22 16:30:52;;;;;;;1.23;0.90;;;;;;;;;;6274734;28;20051;-77
2024/03/22 16:33:53;;;;;;;;;;;;;;;;;;6273804;28;20033;-77
2024/03/22 16:36:54;;;;;;;2.72;1.20;;;;;;;;;;6272219;28;19917;-78
2024/03/22 16:39:54;;;;;;;;;;;;;;;;;;6297782;28;20036;-77
2024/03/22 16:42:54;;;;;;;3.88;2.47;;;;;;;;;;6298471;28;20352;-77
2024/03/22 16:45:54;;;;;;;;;;;;;;;;;;6299134;28;20016;-77
2024/03/22 16:48:55;;;;;;;3.75;2.00;;;;;;;;;;6297224;28;19908;-77
2024/03/22 16:51:55;;;;;;;;;;;;;;;;;;6297026;28;20027;-78
2024/03/22 16:54:55;;;;;;;2.90;1.50;;;;;;;;;;6289455;28;20364;-78
2024/03/22 16:57:59;;;;;;;;;;;;;;;;;;6273525;28;20498;-77
2024/03/22 17:01:03;;;;;;;1.77;1.20;;;;;;;;;;6273418;28;20331;-77
2024/03/22 17:04:03;;;;;;;1.88;1.30;;;;;;;;;;6271581;28;20047;-78
2024/03/22 17:07:03;;;;;;;1.53;1.23;;;;;;;;;;6272112;28;20021;-78
2024/03/22 17:10:03;;;;;;;;;;;;;;;;;;6273898;28;20267;-78
2024/03/22 17:13:04;;;;;;;1.20;1.08;;;;;;;;;;6273189;28;19905;-77
2024/03/22 17:16:04;;;;;;;2.27;1.10;;;;;;;;;;6272835;28;20025;-78
2024/03/22 17:19:06;;;;;;;1.40;1.30;;;;;;;;;;6271099;28;20308;-77
2024/03/22 17:22:06;;;;;;;1.80;1.38;;;;;;;;;;6272031;28;20049;-78
2024/03/22 17:25:07;;;;;;;1.42;1.33;;;;;;;;;;6273625;28;20460;-78
2024/03/22 17:28:07;;;;;;;;;;;;;;;;;;6275150;28;20078;-78
2024/03/22 17:31:09;;;;;;;1.27;1.17;;;;;;;;;;6291596;28;20419;-77
2024/03/22 17:34:09;;;;;;;1.33;1.13;;;;;;;;;;6270558;28;20017;-78
2024/03/22 17:37:10;;;;;;;2.90;1.40;;;;;;;;;;6253913;28;20389;-77
2024/03/22 17:40:11;;;;;;;;;;;;;;;;;;6273544;28;20528;-78
2024/03/22 17:43:14;;;;;;;1.55;1.30;;;;;;;;;;6272684;28;19905;-77
2024/03/22 17:46:14;;;;;;;1.77;1.25;;;;;;;;;;6273039;28;20087;-77
2024/03/22 17:49:14;;;;;;;1.10;1.00;;;;;;;;;;6271167;28;20029;-77
2024/03/22 17:52:15;;;;;;;;;;;;;;;;;;6254467;28;20377;-77
2024/03/22 17:55:15;;;;;;;1.20;1.10;;;;;;;;;;6272577;28;20272;-78
2024/03/22 17:58:15;;;;;;;;;;;;;;;;;;6272712;28;20021;-77
2024/03/22 18:01:15;;;;;;;1.10;1.00;;;;;;;;;;6271346;28;19916;-78
2024/03/22 18:04:15;;;;;;;;;;;;;;;;;;6271892;28;20023;-77
2024/03/22 18:07:16;;;;;;;1.42;1.02;;;;;;;;;;6270693;28;19904;-77
2024/03/22 18:10:16;;;;;;;2.53;1.87;;;;;;;;;;6272764;28;20498;-78
2024/03/22 18:13:16;;;;;;;;;;;;;;;;;;6272690;28;20017;-77
2024/03/22 18:16:16;;;;;;;2.42;1.90;;;;;;;;;;6272570;28;19912;-75
2024/03/22 18:19:17;;;;;;;2.40;1.67;;;;;;;;;;6271280;28;20016;-75
2024/03/22 18:22:17;;;;;;;1.83;1.50;;;;;;;;;;6271373;28;20373;-75
2024/03/22 18:25:18;;;;;;;1.60;1.40;;;;;;;;;;6272685;28;20029;-75